createdAt,value
2023-03-07T00:01:57.622Z,3.90
2023-03-07T00:04:24.276Z,3.90
2023-03-07T00:06:50.949Z,3.80
2023-03-07T00:09:17.615Z,3.70
2023-03-07T00:11:44.302Z,3.80
2023-03-07T00:14:11.169Z,3.70
2023-03-07T00:16:37.811Z,3.70
2023-03-07T00:19:05.186Z,3.70
2023-03-07T00:21:32.326Z,3.60
2023-03-07T00:23:59.265Z,3.60
2023-03-07T00:26:26.916Z,3.60
2023-03-07T00:28:55.598Z,3.50
2023-03-07T00:31:23.968Z,3.50
2023-03-07T00:33:50.726Z,3.10
2023-03-07T00:36:22.693Z,3.30
2023-03-07T00:38:50.325Z,3.30
2023-03-07T00:41:21.281Z,3.20
2023-03-07T00:43:48.396Z,3.20
2023-03-07T00:46:16.411Z,3.20
2023-03-07T00:48:43.386Z,3.30
2023-03-07T00:51:12.851Z,3.30
2023-03-07T00:53:40.439Z,3.20
2023-03-07T00:56:16.077Z,3.20
2023-03-07T00:58:44.732Z,3.30
2023-03-07T01:01:14.203Z,3.00
2023-03-07T01:03:41.353Z,3.00
2023-03-07T01:06:13.722Z,3.00
2023-03-07T01:08:40.694Z,3.10
2023-03-07T01:11:08.465Z,3.00
2023-03-07T01:13:36.125Z,3.10
2023-03-07T01:16:13.847Z,3.30
2023-03-07T01:18:42.812Z,3.20
2023-03-07T01:21:22.048Z,3.20
2023-03-07T01:23:50.155Z,3.30
2023-03-07T01:26:20.779Z,3.20
2023-03-07T01:28:47.932Z,3.30
2023-03-07T01:31:14.706Z,3.20
2023-03-07T01:33:41.552Z,3.10
2023-03-07T01:36:25.334Z,3.10
2023-03-07T01:38:55.422Z,3.20
2023-03-07T01:41:22.968Z,3.30
2023-03-07T01:43:51.679Z,3.20
2023-03-07T01:46:46.576Z,3.30
2023-03-07T01:49:29.518Z,3.30
2023-03-07T01:52:31.370Z,3.30
2023-03-07T01:55:08.464Z,3.30
2023-03-07T01:57:38.310Z,3.40
2023-03-07T02:00:14.167Z,3.40
2023-03-07T02:02:44.733Z,3.30
2023-03-07T02:05:29.100Z,3.40
2023-03-07T02:07:58.902Z,3.30
2023-03-07T02:10:30.593Z,3.30
2023-03-07T02:12:57.676Z,3.20
2023-03-07T02:15:24.622Z,3.40
2023-03-07T02:17:51.870Z,3.40
2023-03-07T02:20:24.249Z,3.40
2023-03-07T02:22:51.276Z,3.40
2023-03-07T02:25:20.195Z,3.40
2023-03-07T02:27:48.734Z,3.40
2023-03-07T02:30:15.667Z,3.10
2023-03-07T02:32:42.593Z,3.20
2023-03-07T02:35:20.426Z,3.30
2023-03-07T02:37:53.861Z,3.30
2023-03-07T02:40:24.960Z,3.40
2023-03-07T02:42:54.657Z,3.40
2023-03-07T02:45:21.673Z,3.50
2023-03-07T02:47:48.612Z,3.60
2023-03-07T02:50:17.801Z,3.40
2023-03-07T02:52:49.568Z,3.50
2023-03-07T02:55:16.745Z,3.70
2023-03-07T02:57:49.389Z,3.60
2023-03-07T03:00:17.378Z,3.60
2023-03-07T03:02:44.445Z,3.70
2023-03-07T03:05:12.584Z,3.60
2023-03-07T03:07:39.284Z,3.50
2023-03-07T03:10:06.553Z,3.50
2023-03-07T03:12:33.886Z,3.60
2023-03-07T03:15:00.818Z,3.60
2023-03-07T03:17:27.544Z,3.70
2023-03-07T03:19:54.283Z,3.70
2023-03-07T03:22:21.005Z,3.80
2023-03-07T03:24:50.157Z,3.80
2023-03-07T03:27:18.712Z,3.80
2023-03-07T03:29:48.474Z,3.80
2023-03-07T03:32:16.190Z,3.70
2023-03-07T03:34:44.518Z,3.70
2023-03-07T03:37:11.430Z,3.60
2023-03-07T03:39:38.479Z,3.50
2023-03-07T03:42:06.190Z,3.50
2023-03-07T03:44:33.262Z,3.50
2023-03-07T03:47:00.236Z,3.30
2023-03-07T03:49:27.373Z,3.40
2023-03-07T03:51:54.992Z,3.30
2023-03-07T03:54:21.812Z,3.40
2023-03-07T03:56:48.555Z,3.30
2023-03-07T03:59:15.228Z,3.30
2023-03-07T04:01:42.143Z,3.40
2023-03-07T04:04:09.374Z,3.40
2023-03-07T04:06:37.304Z,3.40
2023-03-07T04:09:05.328Z,3.50
2023-03-07T04:11:32.710Z,3.60
2023-03-07T04:13:59.522Z,3.50
2023-03-07T04:16:26.253Z,3.60
2023-03-07T04:18:53.250Z,3.70
2023-03-07T04:21:21.456Z,3.70
2023-03-07T04:23:50.385Z,3.60
2023-03-07T04:26:17.386Z,3.60
2023-03-07T04:28:49.058Z,3.70
2023-03-07T04:31:23.097Z,3.60
2023-03-07T04:33:50.887Z,3.70
2023-03-07T04:36:18.435Z,3.70
2023-03-07T04:38:46.532Z,3.70
2023-03-07T04:41:18.977Z,3.80
2023-03-07T04:43:47.848Z,3.80
2023-03-07T04:46:16.479Z,3.60
2023-03-07T04:48:44.017Z,3.50
2023-03-07T04:51:11.050Z,3.40
2023-03-07T04:53:37.811Z,3.60
2023-03-07T04:56:06.920Z,3.70
2023-03-07T04:58:34.645Z,3.60
2023-03-07T05:01:03.854Z,3.60
2023-03-07T05:03:31.037Z,3.60
2023-03-07T05:06:03.098Z,3.70
2023-03-07T05:08:30.496Z,3.50
2023-03-07T05:10:57.735Z,3.50
2023-03-07T05:13:25.605Z,3.40
2023-03-07T05:15:53.968Z,3.30
2023-03-07T05:18:22.460Z,3.50
2023-03-07T05:20:50.301Z,3.50
2023-03-07T05:23:18.369Z,3.50
2023-03-07T05:25:47.588Z,3.40
2023-03-07T05:28:14.729Z,3.50
2023-03-07T05:30:41.410Z,3.60
2023-03-07T05:33:08.156Z,3.80
2023-03-07T05:35:39.526Z,3.70
2023-03-07T05:38:08.110Z,3.60
2023-03-07T05:40:35.495Z,3.80
2023-03-07T05:43:02.668Z,3.80
2023-03-07T05:45:29.482Z,3.70
2023-03-07T05:47:56.271Z,3.80
2023-03-07T05:50:23.852Z,3.80
2023-03-07T05:52:50.759Z,3.80
2023-03-07T05:55:18.409Z,3.90
2023-03-07T05:57:45.088Z,3.80
2023-03-07T06:00:12.492Z,3.60
2023-03-07T06:02:47.574Z,3.50
2023-03-07T06:05:15.927Z,3.60
2023-03-07T06:07:42.629Z,3.50
2023-03-07T06:10:11.057Z,3.60
2023-03-07T06:12:37.892Z,3.70
2023-03-07T06:15:05.407Z,3.70
2023-03-07T06:17:34.327Z,3.50
2023-03-07T06:20:01.096Z,3.50
2023-03-07T06:22:27.809Z,3.40
2023-03-07T06:24:55.056Z,3.20
2023-03-07T06:27:21.828Z,3.30
2023-03-07T06:29:48.592Z,3.30
2023-03-07T06:32:15.409Z,3.40
2023-03-07T06:34:42.355Z,3.30
2023-03-07T06:37:09.775Z,3.30
2023-03-07T06:39:36.678Z,3.30
2023-03-07T06:42:05.325Z,3.50
2023-03-07T06:44:32.264Z,3.40
2023-03-07T06:46:59.070Z,3.50
2023-03-07T06:49:25.945Z,3.60
2023-03-07T06:51:52.739Z,3.60
2023-03-07T06:54:20.171Z,3.40
2023-03-07T06:56:47.274Z,3.30
2023-03-07T06:59:19.520Z,3.40
2023-03-07T07:01:46.421Z,3.30
2023-03-07T07:04:13.308Z,3.20
2023-03-07T07:06:41.989Z,3.30
2023-03-07T07:09:11.969Z,3.40
2023-03-07T07:11:38.731Z,3.30
2023-03-07T07:14:08.806Z,3.40
2023-03-07T07:16:37.343Z,3.50
2023-03-07T07:19:05.135Z,3.50
2023-03-07T07:21:32.120Z,3.80
2023-03-07T07:23:59.075Z,3.80
2023-03-07T07:26:26.477Z,3.70
2023-03-07T07:28:53.640Z,3.90
2023-03-07T07:31:20.383Z,4.10
2023-03-07T07:33:47.053Z,4.20
2023-03-07T07:36:15.703Z,4.30
2023-03-07T07:38:42.823Z,4.40
2023-03-07T07:41:09.841Z,4.40
2023-03-07T07:43:36.652Z,4.40
2023-03-07T07:46:12.282Z,4.60
2023-03-07T07:48:39.286Z,4.70
2023-03-07T07:51:06.487Z,4.70
2023-03-07T07:53:36.044Z,4.40
2023-03-07T07:56:02.974Z,4.60
2023-03-07T07:58:29.728Z,4.60
2023-03-07T08:00:56.628Z,4.80
2023-03-07T08:03:23.402Z,4.70
2023-03-07T08:05:51.006Z,4.70
2023-03-07T08:08:19.512Z,4.90
2023-03-07T08:10:47.125Z,5.10
2023-03-07T08:13:15.688Z,5.40
2023-03-07T08:15:43.258Z,5.40
2023-03-07T08:18:10.841Z,5.50
2023-03-07T08:20:38.318Z,5.50
2023-03-07T08:23:05.045Z,5.50
2023-03-07T08:25:32.081Z,5.70
2023-03-07T08:27:59.185Z,5.60
2023-03-07T08:30:28.217Z,5.70
2023-03-07T08:32:56.487Z,5.70
2023-03-07T08:35:24.643Z,5.70
2023-03-07T08:37:55.698Z,5.80
2023-03-07T08:40:24.115Z,5.90
2023-03-07T08:42:50.969Z,5.60
2023-03-07T08:45:17.794Z,5.80
2023-03-07T08:47:44.464Z,5.50
2023-03-07T08:50:11.770Z,5.70
2023-03-07T08:52:38.436Z,5.60
2023-03-07T08:55:05.519Z,5.70
2023-03-07T08:57:33.168Z,5.60
2023-03-07T08:59:59.862Z,5.20
2023-03-07T09:02:26.557Z,5.30
2023-03-07T09:04:53.654Z,5.50
2023-03-07T09:07:20.388Z,5.70
2023-03-07T09:09:47.075Z,5.60
2023-03-07T09:12:14.877Z,6.00
2023-03-07T09:14:41.795Z,6.10
2023-03-07T09:17:09.568Z,6.00
2023-03-07T09:19:36.266Z,6.10
2023-03-07T09:22:02.957Z,6.20
2023-03-07T09:24:30.259Z,6.40
2023-03-07T09:26:57.019Z,6.50
2023-03-07T09:29:24.781Z,6.70
2023-03-07T09:31:51.563Z,6.90
2023-03-07T09:34:18.250Z,7.20
2023-03-07T09:36:44.976Z,7.20
2023-03-07T09:39:14.572Z,7.20
2023-03-07T09:42:12.862Z,6.90
2023-03-07T09:44:54.691Z,7.30
2023-03-07T09:48:09.902Z,7.30
2023-03-07T09:50:54.421Z,7.50
2023-03-07T09:54:03.001Z,7.50
2023-03-07T09:56:46.168Z,6.80
2023-03-07T09:59:24.339Z,6.80
2023-03-07T10:01:59.948Z,6.80
2023-03-07T10:04:37.238Z,6.70
2023-03-07T10:07:05.086Z,7.00
2023-03-07T10:09:31.813Z,6.80
2023-03-07T10:11:59.074Z,6.90
2023-03-07T10:14:58.046Z,7.40
2023-03-07T10:17:35.182Z,7.50
2023-03-07T10:20:40.234Z,7.40
2023-03-07T10:23:25.896Z,8.10
2023-03-07T10:26:01.885Z,8.60
2023-03-07T10:28:32.510Z,8.60
2023-03-07T10:31:21.001Z,8.50
2023-03-07T10:33:49.290Z,8.40
2023-03-07T10:36:21.105Z,8.50
2023-03-07T10:39:01.652Z,8.80
2023-03-07T10:41:28.881Z,8.90
2023-03-07T10:43:56.618Z,8.70
2023-03-07T10:46:30.864Z,8.40
2023-03-07T10:49:08.770Z,7.90
2023-03-07T10:51:42.660Z,8.40
2023-03-07T10:54:16.972Z,8.70
2023-03-07T10:57:08.506Z,8.70
2023-03-07T10:59:37.337Z,8.70
2023-03-07T11:02:36.788Z,8.60
2023-03-07T11:05:23.875Z,8.30
2023-03-07T11:07:50.519Z,8.50
2023-03-07T11:10:34.846Z,8.30
2023-03-07T11:13:22.028Z,8.40
2023-03-07T11:15:49.175Z,8.40
2023-03-07T11:18:37.988Z,8.40
2023-03-07T11:21:05.230Z,8.20
2023-03-07T11:23:32.712Z,8.10
2023-03-07T11:26:17.592Z,8.30
2023-03-07T11:28:44.869Z,8.10
2023-03-07T11:31:23.531Z,7.80
2023-03-07T11:34:15.780Z,7.80
2023-03-07T11:36:48.537Z,7.80
2023-03-07T11:39:32.226Z,7.60
2023-03-07T11:42:38.418Z,7.80
2023-03-07T11:45:38.215Z,7.90
2023-03-07T11:48:31.439Z,7.70
2023-03-07T11:50:59.601Z,7.60
2023-03-07T11:53:47.150Z,7.40
2023-03-07T11:56:20.024Z,7.50
2023-03-07T11:59:19.166Z,7.60
2023-03-07T12:01:59.117Z,7.60
2023-03-07T12:04:28.751Z,7.30
2023-03-07T12:07:20.371Z,7.40
2023-03-07T12:10:02.664Z,7.60
2023-03-07T12:12:51.299Z,7.70
2023-03-07T12:15:17.971Z,7.70
2023-03-07T12:18:21.838Z,7.60
2023-03-07T12:20:57.358Z,7.70
2023-03-07T12:23:42.170Z,7.50
2023-03-07T12:26:45.047Z,7.70
2023-03-07T12:29:39.553Z,7.70
2023-03-07T12:32:14.352Z,7.60
2023-03-07T12:34:47.639Z,7.90
2023-03-07T12:37:21.812Z,8.50
2023-03-07T12:39:58.354Z,9.00
2023-03-07T12:42:49.246Z,8.80
2023-03-07T12:45:22.736Z,8.50
2023-03-07T12:48:08.417Z,8.00
2023-03-07T12:50:41.275Z,7.80
2023-03-07T12:53:36.106Z,7.70
2023-03-07T12:56:12.509Z,8.00
2023-03-07T12:58:48.159Z,7.70
2023-03-07T13:01:23.062Z,8.10
2023-03-07T13:03:56.937Z,8.30
2023-03-07T13:06:24.977Z,8.50
2023-03-07T13:08:55.085Z,8.00
2023-03-07T13:11:31.097Z,7.80
2023-03-07T13:14:04.425Z,8.30
2023-03-07T13:16:44.587Z,8.50
2023-03-07T13:19:36.372Z,8.40
2023-03-07T13:22:24.068Z,7.80
2023-03-07T13:24:54.857Z,7.80
2023-03-07T13:27:41.761Z,7.80
2023-03-07T13:30:08.429Z,7.80
2023-03-07T13:32:56.379Z,7.80
2023-03-07T13:35:29.212Z,7.50
2023-03-07T13:38:14.764Z,7.20
2023-03-07T13:40:44.484Z,7.20
2023-03-07T13:43:24.183Z,7.00
2023-03-07T13:45:57.167Z,6.90
2023-03-07T13:48:29.953Z,7.10
2023-03-07T13:51:02.356Z,6.90
2023-03-07T13:53:50.481Z,6.90
2023-03-07T13:56:17.292Z,6.50
2023-03-07T13:58:52.578Z,6.70
2023-03-07T14:01:22.457Z,7.00
2023-03-07T14:03:54.243Z,7.30
2023-03-07T14:06:27.930Z,7.50
2023-03-07T14:08:55.347Z,7.50
2023-03-07T14:11:40.791Z,7.00
2023-03-07T14:14:27.503Z,6.90
2023-03-07T14:17:03.064Z,6.90
2023-03-07T14:19:38.588Z,6.80
2023-03-07T14:22:10.606Z,6.60
2023-03-07T14:24:53.827Z,6.40
2023-03-07T14:27:20.499Z,6.20
2023-03-07T14:29:52.292Z,6.30
2023-03-07T14:32:23.464Z,6.20
2023-03-07T14:34:50.392Z,5.80
2023-03-07T14:37:22.218Z,5.80
2023-03-07T14:40:01.599Z,5.60
2023-03-07T14:42:52.705Z,5.90
2023-03-07T14:45:37.308Z,5.70
2023-03-07T14:48:09.802Z,5.80
2023-03-07T14:50:39.910Z,5.50
2023-03-07T14:53:21.225Z,5.70
2023-03-07T14:55:51.167Z,5.80
2023-03-07T14:58:20.932Z,5.80
2023-03-07T15:01:11.562Z,6.10
2023-03-07T15:03:52.736Z,6.10
2023-03-07T15:06:24.551Z,6.20
2023-03-07T15:08:52.358Z,6.10
2023-03-07T15:11:40.398Z,5.90
2023-03-07T15:14:19.979Z,6.10
2023-03-07T15:16:50.989Z,6.30
2023-03-07T15:19:23.840Z,6.50
2023-03-07T15:21:57.131Z,6.50
2023-03-07T15:24:30.724Z,6.40
2023-03-07T15:26:59.355Z,6.40
2023-03-07T15:29:31.171Z,6.50
2023-03-07T15:32:04.139Z,6.60
2023-03-07T15:34:36.000Z,6.40
2023-03-07T15:37:26.592Z,6.10
2023-03-07T15:39:57.980Z,6.20
2023-03-07T15:42:24.810Z,6.50
2023-03-07T15:44:56.727Z,6.50
2023-03-07T15:47:24.995Z,6.70
2023-03-07T15:49:54.853Z,6.40
2023-03-07T15:52:27.401Z,6.50
2023-03-07T15:54:56.089Z,6.80
2023-03-07T15:57:26.780Z,6.80
2023-03-07T16:00:15.690Z,6.90
2023-03-07T16:02:45.804Z,6.70
2023-03-07T16:05:24.261Z,6.60
2023-03-07T16:07:52.915Z,6.70
2023-03-07T16:10:20.144Z,6.60
2023-03-07T16:12:48.196Z,6.80
2023-03-07T16:15:20.526Z,6.60
2023-03-07T16:17:52.973Z,6.50
2023-03-07T16:20:23.559Z,6.70
2023-03-07T16:22:50.272Z,6.70
2023-03-07T16:25:17.289Z,6.80
2023-03-07T16:27:50.217Z,6.70
2023-03-07T16:30:20.843Z,6.60
2023-03-07T16:32:47.735Z,6.40
2023-03-07T16:35:24.373Z,6.30
2023-03-07T16:37:51.437Z,6.20
2023-03-07T16:40:18.255Z,6.30
2023-03-07T16:42:47.748Z,6.20
2023-03-07T16:45:26.980Z,6.30
2023-03-07T16:47:56.681Z,6.30
2023-03-07T16:50:33.325Z,6.30
2023-03-07T16:53:00.410Z,6.50
2023-03-07T16:55:27.269Z,6.30
2023-03-07T16:57:56.467Z,6.40
2023-03-07T17:00:25.544Z,6.30
2023-03-07T17:02:54.244Z,6.20
2023-03-07T17:05:25.507Z,6.30
2023-03-07T17:07:57.042Z,6.30
2023-03-07T17:10:26.455Z,6.40
2023-03-07T17:12:54.950Z,6.20
2023-03-07T17:15:26.300Z,6.20
2023-03-07T17:17:53.174Z,6.40
2023-03-07T17:20:20.359Z,6.40
2023-03-07T17:22:47.093Z,6.30
2023-03-07T17:25:13.788Z,6.30
2023-03-07T17:28:00.362Z,6.30
2023-03-07T17:30:29.643Z,6.30
2023-03-07T17:32:57.162Z,6.30
2023-03-07T17:35:24.715Z,6.40
2023-03-07T17:37:52.984Z,6.40
2023-03-07T17:40:21.221Z,6.50
2023-03-07T17:42:50.483Z,6.40
2023-03-07T17:45:17.940Z,6.20
2023-03-07T17:47:44.636Z,6.20
2023-03-07T17:50:12.138Z,6.20
2023-03-07T17:52:39.015Z,6.30
2023-03-07T17:55:09.506Z,6.20
2023-03-07T17:57:36.453Z,6.30
2023-03-07T18:00:06.799Z,6.20
2023-03-07T18:02:39.568Z,6.10
2023-03-07T18:05:07.214Z,6.00
2023-03-07T18:07:34.213Z,5.90
2023-03-07T18:10:07.896Z,5.90
2023-03-07T18:12:41.554Z,5.90
2023-03-07T18:15:13.306Z,5.90
2023-03-07T18:17:47.818Z,5.90
2023-03-07T18:20:15.589Z,6.00
2023-03-07T18:22:42.792Z,5.90
2023-03-07T18:25:12.900Z,5.80
2023-03-07T18:27:39.714Z,5.70
2023-03-07T18:30:06.998Z,5.70
2023-03-07T18:32:34.206Z,5.80
2023-03-07T18:35:00.998Z,5.90
2023-03-07T18:37:28.435Z,5.70
2023-03-07T18:39:55.373Z,5.80
2023-03-07T18:42:22.093Z,5.80
2023-03-07T18:44:48.747Z,5.70
2023-03-07T18:47:15.432Z,5.80
2023-03-07T18:49:42.225Z,5.70
2023-03-07T18:52:08.890Z,5.60
2023-03-07T18:54:35.620Z,5.60
2023-03-07T18:57:02.246Z,5.70
2023-03-07T18:59:28.895Z,5.60
2023-03-07T19:01:55.654Z,5.60
2023-03-07T19:04:22.576Z,5.70
2023-03-07T19:06:49.256Z,5.60
2023-03-07T19:09:18.781Z,5.70
2023-03-07T19:11:46.001Z,5.90
2023-03-07T19:14:12.720Z,5.90
2023-03-07T19:16:39.840Z,6.00
2023-03-07T19:19:06.574Z,5.80
2023-03-07T19:21:33.340Z,5.90
2023-03-07T19:24:01.639Z,5.90
2023-03-07T19:26:28.556Z,5.80
2023-03-07T19:28:56.414Z,5.90
2023-03-07T19:31:29.556Z,5.90
2023-03-07T19:33:56.503Z,5.90
2023-03-07T19:36:27.300Z,5.80
2023-03-07T19:38:57.008Z,5.80
2023-03-07T19:41:25.222Z,5.80
2023-03-07T19:43:52.485Z,5.90
2023-03-07T19:46:20.595Z,5.90
2023-03-07T19:48:47.790Z,5.80
2023-03-07T19:51:18.492Z,5.80
2023-03-07T19:53:46.256Z,5.80
2023-03-07T19:56:22.247Z,5.70
2023-03-07T19:58:49.208Z,5.70
2023-03-07T20:01:18.964Z,5.80
2023-03-07T20:03:46.765Z,5.70
2023-03-07T20:06:27.914Z,5.70
2023-03-07T20:08:55.517Z,5.60
2023-03-07T20:11:28.178Z,5.60
2023-03-07T20:13:56.979Z,5.50
2023-03-07T20:16:27.070Z,5.60
2023-03-07T20:18:53.927Z,5.70
2023-03-07T20:21:25.167Z,5.60
2023-03-07T20:23:53.828Z,5.60
2023-03-07T20:26:23.341Z,5.60
2023-03-07T20:28:51.688Z,5.70
2023-03-07T20:31:18.614Z,5.70
2023-03-07T20:33:46.413Z,5.70
2023-03-07T20:36:20.586Z,5.70
2023-03-07T20:38:55.900Z,5.60
2023-03-07T20:41:24.816Z,5.70
2023-03-07T20:43:53.376Z,5.80
2023-03-07T20:46:21.718Z,5.80
2023-03-07T20:48:49.220Z,5.80
2023-03-07T20:51:21.328Z,5.80
2023-03-07T20:53:53.004Z,5.90
2023-03-07T20:56:20.894Z,5.90
2023-03-07T20:58:47.639Z,5.70
2023-03-07T21:01:18.991Z,5.70
2023-03-07T21:03:48.033Z,5.80
2023-03-07T21:06:15.889Z,5.50
2023-03-07T21:08:42.969Z,5.50
2023-03-07T21:11:10.904Z,5.70
2023-03-07T21:13:40.033Z,5.60
2023-03-07T21:16:12.601Z,5.70
2023-03-07T21:18:39.873Z,5.70
2023-03-07T21:21:12.906Z,5.70
2023-03-07T21:23:40.297Z,5.70
2023-03-07T21:26:09.841Z,5.60
2023-03-07T21:28:37.185Z,5.70
2023-03-07T21:31:06.617Z,5.60
2023-03-07T21:33:34.796Z,5.50
2023-03-07T21:36:02.821Z,5.50
2023-03-07T21:38:29.698Z,5.50
2023-03-07T21:40:57.037Z,5.50
2023-03-07T21:43:23.904Z,5.40
2023-03-07T21:45:50.870Z,5.40
2023-03-07T21:48:19.191Z,5.40
2023-03-07T21:50:51.689Z,5.40
2023-03-07T21:53:19.093Z,5.50
2023-03-07T21:55:53.453Z,5.50
2023-03-07T21:58:24.382Z,5.40
2023-03-07T22:00:51.673Z,5.30
2023-03-07T22:03:18.880Z,5.20
2023-03-07T22:05:45.959Z,5.40
2023-03-07T22:08:12.926Z,5.40
2023-03-07T22:10:39.671Z,5.30
2023-03-07T22:13:06.957Z,5.30
2023-03-07T22:15:33.962Z,5.40
2023-03-07T22:18:00.598Z,5.30
2023-03-07T22:20:27.352Z,5.30
2023-03-07T22:22:54.073Z,5.30
2023-03-07T22:25:20.807Z,5.30
2023-03-07T22:27:47.454Z,5.30
2023-03-07T22:30:14.547Z,5.10
2023-03-07T22:32:44.701Z,5.00
2023-03-07T22:35:11.423Z,4.90
2023-03-07T22:37:38.256Z,5.00
2023-03-07T22:40:05.783Z,5.00
2023-03-07T22:42:32.455Z,5.00
2023-03-07T22:44:59.076Z,5.00
2023-03-07T22:47:25.815Z,5.10
2023-03-07T22:49:52.425Z,5.10
2023-03-07T22:52:19.070Z,5.00
2023-03-07T22:54:45.728Z,5.00
2023-03-07T22:57:12.493Z,5.10
2023-03-07T22:59:39.144Z,5.00
2023-03-07T23:02:05.963Z,5.00
2023-03-07T23:04:32.715Z,5.00
2023-03-07T23:06:59.379Z,5.00
2023-03-07T23:09:26.026Z,5.20
2023-03-07T23:11:52.685Z,5.00
2023-03-07T23:14:19.367Z,5.00
2023-03-07T23:16:46.195Z,4.90
2023-03-07T23:19:12.845Z,5.00
2023-03-07T23:21:39.541Z,5.00
2023-03-07T23:24:06.373Z,4.90
2023-03-07T23:26:36.881Z,5.10
2023-03-07T23:29:05.633Z,5.00
2023-03-07T23:31:35.726Z,5.10
2023-03-07T23:34:06.485Z,5.10
2023-03-07T23:36:33.692Z,5.10
2023-03-07T23:39:00.551Z,5.10
2023-03-07T23:41:27.791Z,5.10
2023-03-07T23:43:59.533Z,5.30
2023-03-07T23:46:27.409Z,5.30
2023-03-07T23:48:54.783Z,5.40
2023-03-07T23:51:22.157Z,5.40
2023-03-07T23:53:48.992Z,5.30
2023-03-07T23:56:16.171Z,5.40
2023-03-07T23:58:43.912Z,5.30
